Saint Louis, Missouri
Current Conditions -  °F | °C
As of 9:53 PM on Sunday 21 Dec 2014 (Local Time) from KCPS Reporting Station
Overcast Overcast  
Wind Chill: 36°   Ceiling: 6000
Heat Index: 42°   Visibility: 10mi
Dew Point: 33°   Wind: 10mph
Humidity: 70%   Direction: 140°SE
Pressure: 29.97"   Gusts: NA
Location:  38.63°N, 90.24°W
Report Text: KCPS 220353Z 14009KT 10SM FEW042 OVC060 06/01 A2997 RMK AO2 SLP149 T00560006
Loading
Personal Weather Stations






























Interactive Weather Map New forecast layout! Learn more

10-Day Weather Forecast

Advertisements
Track Severe Weather on mobile